createdAt,value
2022-10-02T00:02:23.654Z,101618.53
2022-10-02T00:04:53.090Z,101618.53
2022-10-02T00:07:26.590Z,101619.72
2022-10-02T00:09:58.538Z,101625.69
2022-10-02T00:12:27.100Z,101630.19
2022-10-02T00:15:00.753Z,101624.31
2022-10-02T00:17:33.494Z,101626.59
2022-10-02T00:20:00.808Z,101635.66
2022-10-02T00:22:33.155Z,101637.38
2022-10-02T00:25:14.122Z,101640.16
2022-10-02T00:27:56.736Z,101634.88
2022-10-02T00:30:23.383Z,101630.00
2022-10-02T00:33:06.692Z,101634.16
2022-10-02T00:35:43.559Z,101640.91
2022-10-02T00:38:29.090Z,101630.72
2022-10-02T00:41:20.305Z,101627.47
2022-10-02T00:43:49.660Z,101621.00
2022-10-02T00:46:38.368Z,101627.59
2022-10-02T00:49:23.823Z,101635.41
2022-10-02T00:52:09.545Z,101633.19
2022-10-02T00:54:48.586Z,101624.59
2022-10-02T00:57:36.623Z,101628.28
2022-10-02T01:00:13.583Z,101626.38
2022-10-02T01:03:18.022Z,101632.50
2022-10-02T01:05:44.847Z,101619.13
2022-10-02T01:08:11.373Z,101625.50
2022-10-02T01:10:38.475Z,101625.31
2022-10-02T01:13:06.068Z,101628.03
2022-10-02T01:15:37.529Z,101625.44
2022-10-02T01:18:05.106Z,101631.13
2022-10-02T01:20:42.170Z,101633.63
2022-10-02T01:23:24.750Z,101635.00
2022-10-02T01:25:51.578Z,101631.66
2022-10-02T01:28:18.842Z,101628.09
2022-10-02T01:30:50.043Z,101635.66
2022-10-02T01:33:17.302Z,101639.91
2022-10-02T01:35:44.267Z,101635.16
2022-10-02T01:38:14.527Z,101648.28
2022-10-02T01:40:41.966Z,101640.31
2022-10-02T01:43:16.202Z,101646.63
2022-10-02T01:45:52.988Z,101653.97
2022-10-02T01:48:31.014Z,101668.50
2022-10-02T01:51:03.433Z,101672.25
2022-10-02T01:54:05.174Z,101672.25
2022-10-02T01:56:45.559Z,101678.38
2022-10-02T01:59:24.986Z,101671.25
2022-10-02T02:02:19.035Z,101663.44
2022-10-02T02:04:56.472Z,101660.13
2022-10-02T02:07:43.135Z,101653.53
2022-10-02T02:10:24.708Z,101660.06
2022-10-02T02:13:07.793Z,101657.34
2022-10-02T02:15:41.248Z,101669.00
2022-10-02T02:18:17.719Z,101665.72
2022-10-02T02:20:50.694Z,101662.88
2022-10-02T02:23:22.341Z,101672.09
2022-10-02T02:25:53.221Z,101668.44
2022-10-02T02:28:22.652Z,101665.78
2022-10-02T02:30:53.730Z,101664.13
2022-10-02T02:34:01.471Z,101675.59
2022-10-02T02:36:35.984Z,101673.50
2022-10-02T02:39:14.938Z,101675.34
2022-10-02T02:41:49.601Z,101672.88
2022-10-02T02:44:25.010Z,101669.94
2022-10-02T02:47:11.265Z,101678.69
2022-10-02T02:49:46.805Z,101671.44
2022-10-02T02:52:21.292Z,101677.22
2022-10-02T02:54:55.068Z,101685.00
2022-10-02T02:57:29.449Z,101695.91
2022-10-02T02:59:59.271Z,101680.22
2022-10-02T03:02:26.014Z,101682.13
2022-10-02T03:04:52.616Z,101683.78
2022-10-02T03:07:19.601Z,101687.88
2022-10-02T03:09:58.089Z,101684.88
2022-10-02T03:12:58.179Z,101690.25
2022-10-02T03:15:33.859Z,101688.03
2022-10-02T03:18:20.260Z,101679.88
2022-10-02T03:20:53.919Z,101682.13
2022-10-02T03:23:30.552Z,101671.28
2022-10-02T03:26:06.314Z,101676.69
2022-10-02T03:28:55.473Z,101677.75
2022-10-02T03:31:25.353Z,101670.78
2022-10-02T03:33:53.974Z,101677.75
2022-10-02T03:36:21.706Z,101685.75
2022-10-02T03:39:00.793Z,101671.81
2022-10-02T03:41:35.705Z,101678.75
2022-10-02T03:44:02.272Z,101681.06
2022-10-02T03:46:28.830Z,101685.38
2022-10-02T03:48:56.678Z,101685.38
2022-10-02T03:51:24.314Z,101687.66
2022-10-02T03:53:52.156Z,101687.66
2022-10-02T03:56:41.549Z,101673.09
2022-10-02T03:59:17.567Z,101686.22
2022-10-02T04:01:50.757Z,101671.22
2022-10-02T04:04:34.718Z,101675.75
2022-10-02T04:07:10.898Z,101675.75
2022-10-02T04:09:43.724Z,101674.31
2022-10-02T04:12:16.984Z,101682.75
2022-10-02T04:14:55.632Z,101683.47
2022-10-02T04:18:08.994Z,101683.25
2022-10-02T04:20:43.976Z,101689.66
2022-10-02T04:23:19.672Z,101688.00
2022-10-02T04:26:18.502Z,101683.72
2022-10-02T04:28:51.449Z,101703.56
2022-10-02T04:31:18.076Z,101686.13
2022-10-02T04:33:44.656Z,101692.09
2022-10-02T04:36:55.255Z,101702.34
2022-10-02T04:39:46.826Z,101699.31
2022-10-02T04:42:20.865Z,101695.59
2022-10-02T04:45:07.631Z,101690.72
2022-10-02T04:48:05.000Z,101690.97
2022-10-02T04:50:40.154Z,101697.53
2022-10-02T04:53:16.227Z,101695.69
2022-10-02T04:55:47.000Z,101703.06
2022-10-02T04:58:33.441Z,101715.72
2022-10-02T05:01:31.381Z,101722.25
2022-10-02T05:04:20.736Z,101713.47
2022-10-02T05:06:49.967Z,101718.59
2022-10-02T05:09:37.583Z,101725.38
2022-10-02T05:12:43.039Z,101726.84
2022-10-02T05:15:40.912Z,101725.38
2022-10-02T05:18:43.504Z,101728.66
2022-10-02T05:21:31.908Z,101730.88
2022-10-02T05:24:27.994Z,101733.56
2022-10-02T05:27:33.087Z,101735.22
2022-10-02T05:30:08.191Z,101730.09
2022-10-02T05:32:52.214Z,101738.88
2022-10-02T05:35:28.576Z,101745.25
2022-10-02T05:38:13.528Z,101751.22
2022-10-02T05:40:55.108Z,101751.03
2022-10-02T05:43:33.431Z,101761.69
2022-10-02T05:46:06.405Z,101760.00
2022-10-02T05:48:41.719Z,101760.84
2022-10-02T05:51:29.536Z,101781.53
2022-10-02T05:54:04.293Z,101773.09
2022-10-02T05:56:39.605Z,101775.13
2022-10-02T05:59:40.522Z,101776.50
2022-10-02T06:02:29.278Z,101786.53
2022-10-02T06:05:06.245Z,101784.44
2022-10-02T06:07:33.539Z,101788.94
2022-10-02T06:10:13.115Z,101787.31
2022-10-02T06:12:45.023Z,101796.28
2022-10-02T06:15:33.177Z,101798.53
2022-10-02T06:18:06.081Z,101811.75
2022-10-02T06:20:55.780Z,101804.16
2022-10-02T06:23:31.718Z,101807.00
2022-10-02T06:26:13.085Z,101812.78
2022-10-02T06:28:42.639Z,101817.06
2022-10-02T06:31:41.920Z,101817.91
2022-10-02T06:34:14.015Z,101817.91
2022-10-02T06:37:02.531Z,101827.19
2022-10-02T06:39:43.285Z,101831.50
2022-10-02T06:42:32.560Z,101832.34
2022-10-02T06:45:03.792Z,101839.50
2022-10-02T06:47:49.235Z,101837.19
2022-10-02T06:50:19.435Z,101845.38
2022-10-02T06:52:48.949Z,101842.91
2022-10-02T06:55:42.421Z,101853.56
2022-10-02T06:58:27.074Z,101845.75
2022-10-02T07:01:14.817Z,101841.44
2022-10-02T07:03:54.749Z,101841.44
2022-10-02T07:06:41.817Z,101840.16
2022-10-02T07:09:35.649Z,101834.00
2022-10-02T07:12:37.422Z,101840.38
2022-10-02T07:15:09.984Z,101853.31
2022-10-02T07:18:02.349Z,101855.59
2022-10-02T07:20:51.667Z,101857.88
2022-10-02T07:24:03.090Z,101861.81
2022-10-02T07:26:41.336Z,101867.94
2022-10-02T07:29:10.787Z,101869.69
2022-10-02T07:32:05.698Z,101864.19
2022-10-02T07:35:04.569Z,101870.16
2022-10-02T07:37:42.747Z,101862.97
2022-10-02T07:40:39.576Z,101868.94
2022-10-02T07:43:27.211Z,101871.78
2022-10-02T07:46:17.172Z,101882.00
2022-10-02T07:49:08.527Z,101879.34
2022-10-02T07:51:54.988Z,101882.63
2022-10-02T07:54:39.934Z,101882.72
2022-10-02T07:57:39.410Z,101894.28
2022-10-02T08:00:13.801Z,101896.00
2022-10-02T08:02:47.910Z,101902.53
2022-10-02T08:05:19.697Z,101907.78
2022-10-02T08:07:50.754Z,101906.78
2022-10-02T08:10:25.737Z,101916.06
2022-10-02T08:13:00.231Z,101907.22
2022-10-02T08:15:33.490Z,101906.53
2022-10-02T08:18:30.142Z,101903.47
2022-10-02T08:20:56.429Z,101907.84
2022-10-02T08:23:28.002Z,101916.63
2022-10-02T08:26:05.274Z,101921.84
2022-10-02T08:28:56.910Z,101920.75
2022-10-02T08:31:24.298Z,101928.69
2022-10-02T08:33:51.870Z,101933.34
2022-10-02T08:36:30.450Z,101936.00
2022-10-02T08:39:22.055Z,101929.88
2022-10-02T08:42:04.778Z,101933.28
2022-10-02T08:45:02.306Z,101938.88
2022-10-02T08:47:56.694Z,101937.75
2022-10-02T08:50:55.330Z,101934.72
2022-10-02T08:53:59.006Z,101922.25
2022-10-02T08:56:51.078Z,101943.19
2022-10-02T08:59:46.620Z,101947.56
2022-10-02T09:02:42.314Z,101944.84
2022-10-02T09:05:23.922Z,101948.72
2022-10-02T09:07:56.877Z,101952.22
2022-10-02T09:10:48.426Z,101968.94
2022-10-02T09:13:30.849Z,101954.72
2022-10-02T09:16:11.583Z,101956.91
2022-10-02T09:19:05.304Z,101961.66
2022-10-02T09:21:53.003Z,101976.97
2022-10-02T09:24:44.463Z,101974.78
2022-10-02T09:27:38.878Z,101973.41
2022-10-02T09:30:13.632Z,101965.22
2022-10-02T09:32:54.388Z,101974.72
2022-10-02T09:35:39.439Z,101977.66
2022-10-02T09:38:14.931Z,101984.66
2022-10-02T09:41:00.177Z,101980.31
2022-10-02T09:44:12.822Z,101986.69
2022-10-02T09:46:44.818Z,101998.25
2022-10-02T09:49:36.154Z,101994.72
2022-10-02T09:52:08.417Z,101995.34
2022-10-02T09:55:03.183Z,102002.53
2022-10-02T09:58:08.734Z,101999.03
2022-10-02T10:00:38.400Z,101996.97
2022-10-02T10:03:36.565Z,101999.88
2022-10-02T10:06:26.644Z,102006.94
2022-10-02T10:09:17.881Z,102009.63
2022-10-02T10:12:09.204Z,102014.56
2022-10-02T10:14:45.375Z,102015.13
2022-10-02T10:17:40.083Z,102016.16
2022-10-02T10:20:44.302Z,102024.63
2022-10-02T10:23:14.495Z,102032.88
2022-10-02T10:26:04.712Z,102035.16
2022-10-02T10:28:49.274Z,102030.25
2022-10-02T10:31:57.087Z,102024.31
2022-10-02T10:35:01.734Z,102029.47
2022-10-02T10:38:05.512Z,102034.44
2022-10-02T10:40:43.883Z,102031.91
2022-10-02T10:43:37.580Z,102034.72
2022-10-02T10:46:20.134Z,102041.72
2022-10-02T10:48:56.255Z,102034.50
2022-10-02T10:51:35.257Z,102045.03
2022-10-02T10:54:28.978Z,102051.13
2022-10-02T10:57:29.495Z,102048.47
2022-10-02T11:00:18.060Z,102060.44
2022-10-02T11:02:59.274Z,102053.94
2022-10-02T11:06:05.083Z,102059.31
2022-10-02T11:09:04.398Z,102065.38
2022-10-02T11:11:38.876Z,102063.38
2022-10-02T11:14:20.253Z,102066.44
2022-10-02T11:17:20.171Z,102070.34
2022-10-02T11:19:49.486Z,102076.53
2022-10-02T11:23:04.133Z,102074.75
2022-10-02T11:26:10.875Z,102073.34
2022-10-02T11:28:47.600Z,102079.41
2022-10-02T11:31:40.260Z,102076.44
2022-10-02T11:34:28.314Z,102082.91
2022-10-02T11:37:24.395Z,102080.47
2022-10-02T11:40:16.502Z,102091.41
2022-10-02T11:43:14.657Z,102094.38
2022-10-02T11:46:12.088Z,102093.63
2022-10-02T11:48:51.585Z,102099.19
2022-10-02T11:52:08.815Z,102094.94
2022-10-02T11:54:53.910Z,102092.59
2022-10-02T11:57:40.305Z,102100.53
2022-10-02T12:00:34.275Z,102100.59
2022-10-02T12:03:15.394Z,102110.63
2022-10-02T12:05:55.823Z,102113.81
2022-10-02T12:08:59.755Z,102111.88
2022-10-02T12:11:47.342Z,102106.72
2022-10-02T12:14:34.556Z,102103.25
2022-10-02T12:17:32.891Z,102117.50
2022-10-02T12:20:20.805Z,102115.84
2022-10-02T12:23:21.360Z,102094.81
2022-10-02T12:26:21.864Z,102167.19
2022-10-02T12:29:00.844Z,102152.34
2022-10-02T12:31:37.082Z,102163.06
2022-10-02T12:34:35.521Z,102161.59
2022-10-02T12:37:22.923Z,102162.41
2022-10-02T12:40:18.985Z,102165.34
2022-10-02T12:43:10.602Z,102163.28
2022-10-02T12:46:30.958Z,102159.78
2022-10-02T12:49:30.931Z,102175.28
2022-10-02T12:52:34.785Z,102180.63
2022-10-02T12:55:31.512Z,102185.91
2022-10-02T12:58:31.498Z,102189.09
2022-10-02T13:01:16.851Z,102186.28
2022-10-02T13:04:20.899Z,102197.19
2022-10-02T13:06:53.059Z,102197.25
2022-10-02T13:09:29.204Z,102194.94
2022-10-02T13:12:33.127Z,102194.25
2022-10-02T13:15:32.917Z,102183.72
2022-10-02T13:18:43.647Z,102188.34
2022-10-02T13:21:23.784Z,102185.75
2022-10-02T13:24:23.082Z,102197.13
2022-10-02T13:27:08.352Z,102196.53
2022-10-02T13:30:06.387Z,102196.88
2022-10-02T13:32:32.901Z,102194.03
2022-10-02T13:35:05.345Z,102193.66
2022-10-02T13:37:31.810Z,102196.38
2022-10-02T13:40:35.309Z,102201.84
2022-10-02T13:43:34.579Z,102203.78
2022-10-02T13:46:02.480Z,102205.97
2022-10-02T13:49:04.865Z,102200.66
2022-10-02T13:51:54.687Z,102216.16
2022-10-02T13:54:30.079Z,102214.00
2022-10-02T13:57:21.023Z,102209.66
2022-10-02T14:00:09.886Z,102207.34
2022-10-02T14:02:45.246Z,102206.03
2022-10-02T14:05:32.928Z,102212.50
2022-10-02T14:08:41.708Z,102222.91
2022-10-02T14:11:20.425Z,102224.13
2022-10-02T14:14:09.442Z,102228.13
2022-10-02T14:16:44.818Z,102230.28
2022-10-02T14:19:20.133Z,102233.66
2022-10-02T14:21:51.876Z,102224.56
2022-10-02T14:25:05.556Z,102232.44
2022-10-02T14:27:53.171Z,102232.28
2022-10-02T14:30:40.851Z,102239.47
2022-10-02T14:33:57.762Z,102229.94
2022-10-02T14:36:32.073Z,102232.84
2022-10-02T14:39:16.890Z,102239.25
2022-10-02T14:41:50.402Z,102236.34
2022-10-02T14:44:28.563Z,102235.94
2022-10-02T14:47:15.249Z,102239.41
2022-10-02T14:49:41.994Z,102242.69
2022-10-02T14:52:28.768Z,102252.00
2022-10-02T14:55:16.885Z,102263.84
2022-10-02T14:57:57.258Z,102258.44
2022-10-02T15:00:25.527Z,102265.59
2022-10-02T15:03:16.677Z,102261.53
2022-10-02T15:05:58.102Z,102270.91
2022-10-02T15:08:37.317Z,102270.03
2022-10-02T15:11:06.593Z,102273.00
2022-10-02T15:13:52.710Z,102277.91
2022-10-02T15:16:51.478Z,102276.53
2022-10-02T15:19:25.090Z,102281.53
2022-10-02T15:22:03.689Z,102290.06
2022-10-02T15:24:55.100Z,102292.06
2022-10-02T15:27:31.863Z,102307.47
2022-10-02T15:30:20.331Z,102305.63
2022-10-02T15:33:20.333Z,102314.66
2022-10-02T15:36:10.701Z,102312.94
2022-10-02T15:38:46.094Z,102321.50
2022-10-02T15:41:12.531Z,102324.53
2022-10-02T15:44:20.754Z,102329.81
2022-10-02T15:47:08.937Z,102346.81
2022-10-02T15:49:56.572Z,102337.06
2022-10-02T15:52:25.993Z,102348.50
2022-10-02T15:55:19.896Z,102345.13
2022-10-02T15:58:02.424Z,102349.94
2022-10-02T16:00:57.228Z,102350.84
2022-10-02T16:03:34.194Z,102356.69
2022-10-02T16:06:06.761Z,102351.63
2022-10-02T16:08:41.366Z,102360.75
2022-10-02T16:11:26.622Z,102371.31
2022-10-02T16:14:02.139Z,102370.19
2022-10-02T16:16:39.155Z,102377.47
2022-10-02T16:19:30.442Z,102379.78
2022-10-02T16:22:38.816Z,102384.00
2022-10-02T16:25:43.345Z,102387.91
2022-10-02T16:28:21.802Z,102396.84
2022-10-02T16:30:48.271Z,102391.91
2022-10-02T16:33:21.492Z,102395.84
2022-10-02T16:36:16.572Z,102401.59
2022-10-02T16:39:18.938Z,102413.03
2022-10-02T16:41:58.680Z,102412.78
2022-10-02T16:44:44.175Z,102421.13
2022-10-02T16:47:19.863Z,102433.19
2022-10-02T16:49:57.407Z,102431.75
2022-10-02T16:52:30.203Z,102436.47
2022-10-02T16:55:05.994Z,102439.81
2022-10-02T16:57:35.505Z,102453.50
2022-10-02T17:00:14.995Z,102457.69
2022-10-02T17:03:01.061Z,102462.53
2022-10-02T17:05:45.922Z,102475.88
2022-10-02T17:08:39.978Z,102468.53
2022-10-02T17:11:06.476Z,102472.03
2022-10-02T17:13:47.565Z,102479.34
2022-10-02T17:16:25.657Z,102477.81
2022-10-02T17:18:57.557Z,102479.97
2022-10-02T17:21:44.667Z,102477.28
2022-10-02T17:24:13.879Z,102485.53
2022-10-02T17:27:11.507Z,102486.38
2022-10-02T17:29:46.061Z,102495.81
2022-10-02T17:32:12.756Z,102495.28
2022-10-02T17:34:49.242Z,102497.06
2022-10-02T17:37:18.553Z,102492.03
2022-10-02T17:40:10.402Z,102496.31
2022-10-02T17:42:55.407Z,102514.72
2022-10-02T17:45:42.294Z,102511.84
2022-10-02T17:48:43.481Z,102520.47
2022-10-02T17:51:32.606Z,102517.28
2022-10-02T17:54:35.627Z,102519.41
2022-10-02T17:57:33.606Z,102524.88
2022-10-02T18:00:09.435Z,102531.91
2022-10-02T18:03:05.230Z,102534.38
2022-10-02T18:05:53.315Z,102539.47
2022-10-02T18:08:33.617Z,102544.03
2022-10-02T18:11:07.613Z,102547.59
2022-10-02T18:13:39.862Z,102554.63
2022-10-02T18:16:47.759Z,102558.22
2022-10-02T18:19:30.210Z,102558.94
2022-10-02T18:22:05.486Z,102564.56
2022-10-02T18:24:56.962Z,102561.84
2022-10-02T18:27:48.745Z,102562.72
2022-10-02T18:30:20.218Z,102567.34
2022-10-02T18:33:25.278Z,102570.59
2022-10-02T18:36:21.257Z,102570.75
2022-10-02T18:39:02.417Z,102571.09
2022-10-02T18:41:48.180Z,102575.41
2022-10-02T18:44:33.525Z,102576.44
2022-10-02T18:47:17.698Z,102578.69
2022-10-02T18:50:27.667Z,102586.53
2022-10-02T18:53:28.885Z,102592.44
2022-10-02T18:56:04.790Z,102599.13
2022-10-02T18:58:57.563Z,102601.81
2022-10-02T19:01:56.764Z,102601.41
2022-10-02T19:04:45.605Z,102598.47
2022-10-02T19:07:19.481Z,102619.09
2022-10-02T19:09:47.599Z,102614.81
2022-10-02T19:12:31.861Z,102621.91
2022-10-02T19:15:20.491Z,102621.78
2022-10-02T19:18:10.111Z,102634.75
2022-10-02T19:20:41.435Z,102631.28
2022-10-02T19:23:16.638Z,102629.75
2022-10-02T19:25:48.049Z,102635.72
2022-10-02T19:28:22.908Z,102635.59
2022-10-02T19:30:53.205Z,102640.31
2022-10-02T19:33:32.938Z,102642.28
2022-10-02T19:36:05.165Z,102645.34
2022-10-02T19:38:37.358Z,102646.47
2022-10-02T19:41:13.207Z,102648.69
2022-10-02T19:44:06.708Z,102657.88
2022-10-02T19:46:41.889Z,102657.19
2022-10-02T19:49:19.734Z,102659.00
2022-10-02T19:51:47.807Z,102660.66
2022-10-02T19:54:23.108Z,102658.44
2022-10-02T19:56:56.533Z,102665.41
2022-10-02T19:59:30.547Z,102657.75
2022-10-02T20:02:00.897Z,102661.63
2022-10-02T20:04:31.980Z,102668.47
2022-10-02T20:07:00.242Z,102679.28
2022-10-02T20:09:59.007Z,102685.16
2022-10-02T20:12:37.192Z,102690.84
2022-10-02T20:15:12.586Z,102693.06
2022-10-02T20:17:39.264Z,102697.78
2022-10-02T20:20:12.441Z,102697.38
2022-10-02T20:22:51.792Z,102698.22
2022-10-02T20:25:28.593Z,102702.09
2022-10-02T20:28:15.872Z,102712.22
2022-10-02T20:30:50.528Z,102713.63
2022-10-02T20:33:25.650Z,102720.28
2022-10-02T20:36:06.814Z,102713.44
2022-10-02T20:38:43.191Z,102710.34
2022-10-02T20:41:21.806Z,102708.41
2022-10-02T20:43:51.583Z,102713.84
2022-10-02T20:46:45.348Z,102720.09
2022-10-02T20:49:23.789Z,102721.19
2022-10-02T20:52:17.744Z,102735.78
2022-10-02T20:55:07.354Z,102742.16
2022-10-02T20:58:01.215Z,102735.78
2022-10-02T21:00:45.799Z,102742.59
2022-10-02T21:03:13.391Z,102739.13
2022-10-02T21:06:08.482Z,102743.81
2022-10-02T21:08:37.744Z,102736.31
2022-10-02T21:11:39.365Z,102733.50
2022-10-02T21:14:30.606Z,102741.84
2022-10-02T21:17:27.976Z,102749.06
2022-10-02T21:20:16.667Z,102745.47
2022-10-02T21:23:11.139Z,102736.41
2022-10-02T21:25:57.421Z,102747.22
2022-10-02T21:28:45.891Z,102756.38
2022-10-02T21:31:33.862Z,102756.78
2022-10-02T21:34:31.096Z,102762.88
2022-10-02T21:37:05.013Z,102770.09
2022-10-02T21:40:28.746Z,102774.94
2022-10-02T21:42:57.897Z,102780.97
2022-10-02T21:45:55.104Z,102776.59
2022-10-02T21:48:46.577Z,102789.56
2022-10-02T21:51:40.885Z,102796.06
2022-10-02T21:54:29.248Z,102790.66
2022-10-02T21:57:30.852Z,102795.22
2022-10-02T22:00:14.801Z,102801.72
2022-10-02T22:02:50.282Z,102798.94
2022-10-02T22:05:33.759Z,102801.13
2022-10-02T22:08:35.621Z,102800.44
2022-10-02T22:11:12.506Z,102801.75
2022-10-02T22:13:40.923Z,102791.59
2022-10-02T22:16:28.405Z,102800.59
2022-10-02T22:19:19.094Z,102809.59
2022-10-02T22:21:55.270Z,102808.63
2022-10-02T22:24:47.956Z,102813.19
2022-10-02T22:27:36.801Z,102816.34
2022-10-02T22:30:04.357Z,102821.88
2022-10-02T22:33:11.723Z,102822.13
2022-10-02T22:35:59.865Z,102826.78
2022-10-02T22:38:49.379Z,102830.63
2022-10-02T22:41:16.159Z,102837.94
2022-10-02T22:43:47.007Z,102832.19
2022-10-02T22:46:16.588Z,102834.97
2022-10-02T22:48:49.898Z,102832.66
2022-10-02T22:51:29.378Z,102835.19
2022-10-02T22:54:17.184Z,102832.75
2022-10-02T22:57:20.337Z,102833.22
2022-10-02T22:59:54.955Z,102849.56
2022-10-02T23:02:31.568Z,102851.69
2022-10-02T23:05:14.765Z,102851.81
2022-10-02T23:07:53.257Z,102850.16
2022-10-02T23:10:45.090Z,102851.69
2022-10-02T23:13:44.915Z,102845.34
2022-10-02T23:16:16.206Z,102844.63
2022-10-02T23:18:49.933Z,102836.13
2022-10-02T23:21:32.518Z,102833.81
2022-10-02T23:24:49.954Z,102833.81
2022-10-02T23:27:23.940Z,102823.78
2022-10-02T23:30:03.407Z,102840.25
2022-10-02T23:32:46.714Z,102835.31
2022-10-02T23:35:20.200Z,102832.06
2022-10-02T23:38:09.163Z,102831.00
2022-10-02T23:41:29.431Z,102825.81
2022-10-02T23:44:07.825Z,102832.06
2022-10-02T23:46:50.765Z,102825.59
2022-10-02T23:49:24.842Z,102823.69
2022-10-02T23:52:12.672Z,102829.59
2022-10-02T23:55:23.834Z,102829.22
2022-10-02T23:58:27.125Z,102826.00
